San Francisco (SFO/KSFO)

Information

Location
San Francisco, CA
Local Time
20:38 / 8:38 pm
GMT Time
03:38 / 3:38 am
Gates
No FAA reported delays
METAR KSFO 260256Z 20015G23KT 10SM FEW019 FEW025 15/08 A2980 RMK AO2 SLP091 T01500078 53005
TAF KSFO 260312Z 2603/2706 20015G23KT P6SM FEW025 FM260400 22011KT P6SM SCT025 FM260500 20008KT P6SM BKN025 FM261000 21004KT P6SM OVC020 FM261630 20006KT P6SM SCT025 FM262000 22014G19KT P6SM FEW025 FM270300 24010KT P6SM SCT025